createdAt,value
2022-11-30T00:01:22.790Z,6.80
2022-11-30T00:03:53.560Z,6.80
2022-11-30T00:06:23.255Z,6.90
2022-11-30T00:08:57.274Z,6.90
2022-11-30T00:11:28.327Z,6.90
2022-11-30T00:13:55.341Z,6.90
2022-11-30T00:16:22.495Z,6.90
2022-11-30T00:18:49.563Z,6.90
2022-11-30T00:21:17.897Z,6.90
2022-11-30T00:23:47.710Z,6.90
2022-11-30T00:26:18.552Z,6.90
2022-11-30T00:28:46.131Z,6.90
2022-11-30T00:31:16.461Z,6.90
2022-11-30T00:33:44.219Z,7.00
2022-11-30T00:36:17.608Z,6.80
2022-11-30T00:38:45.813Z,6.90
2022-11-30T00:41:13.303Z,6.90
2022-11-30T00:43:40.161Z,6.80
2022-11-30T00:46:11.030Z,6.90
2022-11-30T00:48:39.581Z,6.80
2022-11-30T00:51:08.537Z,6.80
2022-11-30T00:53:35.846Z,6.80
2022-11-30T00:56:02.613Z,6.80
2022-11-30T00:58:29.369Z,6.80
2022-11-30T01:00:56.183Z,6.80
2022-11-30T01:03:22.962Z,6.80
2022-11-30T01:05:49.831Z,6.80
2022-11-30T01:08:16.803Z,6.80
2022-11-30T01:10:44.543Z,6.80
2022-11-30T01:13:14.478Z,6.80
2022-11-30T01:15:44.328Z,6.90
2022-11-30T01:18:11.981Z,6.90
2022-11-30T01:20:43.305Z,6.90
2022-11-30T01:23:11.146Z,6.90
2022-11-30T01:25:38.849Z,6.90
2022-11-30T01:28:06.328Z,6.90
2022-11-30T01:30:33.173Z,6.90
2022-11-30T01:33:04.769Z,6.90
2022-11-30T01:35:31.623Z,6.90
2022-11-30T01:37:58.386Z,6.90
2022-11-30T01:40:25.144Z,6.90
2022-11-30T01:42:51.913Z,6.80
2022-11-30T01:45:18.766Z,6.90
2022-11-30T01:47:53.743Z,6.90
2022-11-30T01:50:30.621Z,6.90
2022-11-30T01:52:58.614Z,6.90
2022-11-30T01:55:37.656Z,6.90
2022-11-30T01:58:11.525Z,6.90
2022-11-30T02:00:43.598Z,6.90
2022-11-30T02:03:34.551Z,6.90
2022-11-30T02:06:01.473Z,6.90
2022-11-30T02:08:30.833Z,6.90
2022-11-30T02:11:06.147Z,6.90
2022-11-30T02:14:25.769Z,6.90
2022-11-30T02:17:11.135Z,6.90
2022-11-30T02:20:13.571Z,6.90
2022-11-30T02:23:00.650Z,6.90
2022-11-30T02:25:55.311Z,6.90
2022-11-30T02:29:00.541Z,6.90
2022-11-30T02:31:41.483Z,6.90
2022-11-30T02:34:12.706Z,7.00
2022-11-30T02:36:40.461Z,7.00
2022-11-30T02:39:09.625Z,7.00
2022-11-30T02:41:39.253Z,7.00
2022-11-30T02:44:10.337Z,7.00
2022-11-30T02:47:01.418Z,7.10
2022-11-30T02:49:58.774Z,7.00
2022-11-30T02:52:29.251Z,7.10
2022-11-30T02:55:02.947Z,7.10
2022-11-30T02:57:29.872Z,7.10
2022-11-30T02:59:58.666Z,7.10
2022-11-30T03:02:25.474Z,7.10
2022-11-30T03:04:52.325Z,7.10
2022-11-30T03:07:19.094Z,7.10
2022-11-30T03:09:45.898Z,7.10
2022-11-30T03:12:12.685Z,7.10
2022-11-30T03:14:39.461Z,7.00
2022-11-30T03:17:07.021Z,7.00
2022-11-30T03:19:34.687Z,7.00
2022-11-30T03:22:01.444Z,7.00
2022-11-30T03:24:28.218Z,7.10
2022-11-30T03:26:55.037Z,7.00
2022-11-30T03:29:21.792Z,7.10
2022-11-30T03:31:48.571Z,7.10
2022-11-30T03:34:15.398Z,7.10
2022-11-30T03:36:42.233Z,7.10
2022-11-30T03:39:09.552Z,7.10
2022-11-30T03:41:36.707Z,7.10
2022-11-30T03:44:03.568Z,7.00
2022-11-30T03:46:30.369Z,7.00
2022-11-30T03:48:57.125Z,7.00
2022-11-30T03:51:23.890Z,7.00
2022-11-30T03:53:50.777Z,7.00
2022-11-30T03:56:17.897Z,7.00
2022-11-30T03:58:44.735Z,7.00
2022-11-30T04:01:19.365Z,7.00
2022-11-30T04:03:46.192Z,7.00
2022-11-30T04:06:13.238Z,7.00
2022-11-30T04:08:41.350Z,7.00
2022-11-30T04:11:09.589Z,7.00
2022-11-30T04:13:38.471Z,7.00
2022-11-30T04:16:06.945Z,7.10
2022-11-30T04:18:35.868Z,7.00
2022-11-30T04:21:03.735Z,7.10
2022-11-30T04:23:34.639Z,7.10
2022-11-30T04:26:04.641Z,7.10
2022-11-30T04:28:31.557Z,7.00
2022-11-30T04:31:00.397Z,7.00
2022-11-30T04:33:30.489Z,7.00
2022-11-30T04:36:02.408Z,7.10
2022-11-30T04:38:30.097Z,7.00
2022-11-30T04:40:57.194Z,7.00
2022-11-30T04:43:24.920Z,7.00
2022-11-30T04:45:52.121Z,7.00
2022-11-30T04:48:19.702Z,7.00
2022-11-30T04:50:46.510Z,7.00
2022-11-30T04:53:13.252Z,7.00
2022-11-30T04:55:40.401Z,7.00
2022-11-30T04:58:07.416Z,7.00
2022-11-30T05:00:35.584Z,7.10
2022-11-30T05:03:02.606Z,7.10
2022-11-30T05:05:29.463Z,7.10
2022-11-30T05:07:59.477Z,7.10
2022-11-30T05:10:28.399Z,7.10
2022-11-30T05:12:56.991Z,7.10
2022-11-30T05:15:23.799Z,7.10
2022-11-30T05:17:50.563Z,7.10
2022-11-30T05:20:17.590Z,7.10
2022-11-30T05:22:44.402Z,7.10
2022-11-30T05:25:11.420Z,7.10
2022-11-30T05:27:38.525Z,7.10
2022-11-30T05:30:06.873Z,7.00
2022-11-30T05:32:33.716Z,7.00
2022-11-30T05:35:00.476Z,7.00
2022-11-30T05:37:27.262Z,7.00
2022-11-30T05:39:53.989Z,7.00
2022-11-30T05:42:21.096Z,7.00
2022-11-30T05:44:48.359Z,7.00
2022-11-30T05:47:16.302Z,7.00
2022-11-30T05:49:43.458Z,7.00
2022-11-30T05:52:10.456Z,7.00
2022-11-30T05:54:37.367Z,7.00
2022-11-30T05:57:05.326Z,7.00
2022-11-30T05:59:32.138Z,7.10
2022-11-30T06:01:59.054Z,7.10
2022-11-30T06:04:25.996Z,7.00
2022-11-30T06:06:55.549Z,7.20
2022-11-30T06:09:23.276Z,7.00
2022-11-30T06:11:50.561Z,7.00
2022-11-30T06:14:17.910Z,7.00
2022-11-30T06:16:44.846Z,7.00
2022-11-30T06:19:11.776Z,7.10
2022-11-30T06:21:38.530Z,7.00
2022-11-30T06:24:05.767Z,7.10
2022-11-30T06:26:32.513Z,7.00
2022-11-30T06:28:59.261Z,7.00
2022-11-30T06:31:26.020Z,7.00
2022-11-30T06:33:56.587Z,7.00
2022-11-30T06:36:24.147Z,7.00
2022-11-30T06:38:51.644Z,7.00
2022-11-30T06:41:18.770Z,7.00
2022-11-30T06:43:45.611Z,7.00
2022-11-30T06:46:12.820Z,7.00
2022-11-30T06:48:39.735Z,7.00
2022-11-30T06:51:10.800Z,7.00
2022-11-30T06:53:38.024Z,7.00
2022-11-30T06:56:10.833Z,7.20
2022-11-30T06:58:42.000Z,7.10
2022-11-30T07:01:12.864Z,7.10
2022-11-30T07:03:40.472Z,7.00
2022-11-30T07:06:13.091Z,7.00
2022-11-30T07:08:41.331Z,7.00
2022-11-30T07:11:10.346Z,7.00
2022-11-30T07:13:37.614Z,7.00
2022-11-30T07:16:07.296Z,7.00
2022-11-30T07:18:34.914Z,7.00
2022-11-30T07:21:04.210Z,6.90
2022-11-30T07:23:55.815Z,6.90
2022-11-30T07:26:24.624Z,6.90
2022-11-30T07:28:58.198Z,6.90
2022-11-30T07:31:29.148Z,7.00
2022-11-30T07:33:58.448Z,7.00
2022-11-30T07:36:27.787Z,7.00
2022-11-30T07:38:54.540Z,7.00
2022-11-30T07:41:21.994Z,7.00
2022-11-30T07:43:48.789Z,7.00
2022-11-30T07:46:17.538Z,7.00
2022-11-30T07:48:46.388Z,7.00
2022-11-30T07:51:20.638Z,7.00
2022-11-30T07:53:48.398Z,7.00
2022-11-30T07:56:20.442Z,7.00
2022-11-30T07:58:49.741Z,6.90
2022-11-30T08:01:21.448Z,7.10
2022-11-30T08:03:50.346Z,7.10
2022-11-30T08:06:20.904Z,7.10
2022-11-30T08:08:51.646Z,7.10
2022-11-30T08:11:24.373Z,7.20
2022-11-30T08:13:51.338Z,7.20
2022-11-30T08:16:22.498Z,7.20
2022-11-30T08:18:49.869Z,7.30
2022-11-30T08:21:20.071Z,7.20
2022-11-30T08:23:51.573Z,7.20
2022-11-30T08:26:30.936Z,7.00
2022-11-30T08:29:00.146Z,6.90
2022-11-30T08:31:36.450Z,6.80
2022-11-30T08:34:10.565Z,6.70
2022-11-30T08:36:38.945Z,6.70
2022-11-30T08:39:08.979Z,6.60
2022-11-30T08:41:36.831Z,6.60
2022-11-30T08:44:03.679Z,6.50
2022-11-30T08:49:23.458Z,6.60
2022-11-30T08:54:47.480Z,6.40
2022-11-30T08:57:20.403Z,6.40
2022-11-30T08:59:47.461Z,6.40
2022-11-30T09:02:17.846Z,6.40
2022-11-30T09:04:49.453Z,6.40
2022-11-30T09:07:16.816Z,6.40
2022-11-30T09:09:43.966Z,6.30
2022-11-30T09:12:10.785Z,6.40
2022-11-30T09:14:37.619Z,6.40
2022-11-30T09:17:05.018Z,6.40
2022-11-30T09:19:31.865Z,6.50
2022-11-30T09:21:58.685Z,6.50
2022-11-30T09:24:25.501Z,6.50
2022-11-30T09:26:56.888Z,6.50
2022-11-30T09:29:24.253Z,6.50
2022-11-30T09:31:51.048Z,6.50
2022-11-30T09:34:17.805Z,6.50
2022-11-30T09:36:44.595Z,6.50
2022-11-30T09:39:12.777Z,6.40
2022-11-30T09:41:57.485Z,6.50
2022-11-30T09:44:30.189Z,6.50
2022-11-30T09:47:33.927Z,6.50
2022-11-30T09:50:24.601Z,6.60
2022-11-30T09:52:58.293Z,6.50
2022-11-30T09:55:31.086Z,6.70
2022-11-30T09:58:04.753Z,6.60
2022-11-30T10:00:33.995Z,6.70
2022-11-30T10:03:06.185Z,6.80
2022-11-30T10:05:51.895Z,6.90
2022-11-30T10:09:16.272Z,7.00
2022-11-30T10:11:48.446Z,7.10
2022-11-30T10:14:55.975Z,7.10
2022-11-30T10:17:41.433Z,7.10
2022-11-30T10:20:51.160Z,7.10
2022-11-30T10:23:36.821Z,7.10
2022-11-30T10:26:16.757Z,7.10
2022-11-30T10:28:57.717Z,7.10
2022-11-30T10:31:36.756Z,7.10
2022-11-30T10:34:28.807Z,7.10
2022-11-30T10:37:06.266Z,7.10
2022-11-30T10:40:01.412Z,7.10
2022-11-30T10:43:08.110Z,7.10
2022-11-30T10:45:44.488Z,7.00
2022-11-30T10:48:37.269Z,7.10
2022-11-30T10:51:04.657Z,7.00
2022-11-30T10:53:33.996Z,7.10
2022-11-30T10:56:09.724Z,7.20
2022-11-30T10:59:00.755Z,7.10
2022-11-30T11:01:39.181Z,7.20
2022-11-30T11:04:27.515Z,7.30
2022-11-30T11:07:10.349Z,7.30
2022-11-30T11:09:46.993Z,7.40
2022-11-30T11:12:30.763Z,7.40
2022-11-30T11:15:27.046Z,7.40
2022-11-30T11:18:19.275Z,7.40
2022-11-30T11:20:46.175Z,7.40
2022-11-30T11:23:40.427Z,7.40
2022-11-30T11:26:21.917Z,7.40
2022-11-30T11:28:52.499Z,7.30
2022-11-30T11:31:43.998Z,7.20
2022-11-30T11:34:27.018Z,7.20
2022-11-30T11:37:33.924Z,7.10
2022-11-30T11:40:17.512Z,7.10
2022-11-30T11:42:52.068Z,7.10
2022-11-30T11:45:26.047Z,7.20
2022-11-30T11:48:28.706Z,7.20
2022-11-30T11:51:08.555Z,7.30
2022-11-30T11:53:51.658Z,7.30
2022-11-30T11:56:28.720Z,7.40
2022-11-30T11:59:19.257Z,7.40
2022-11-30T12:01:55.188Z,7.40
2022-11-30T12:05:05.500Z,7.40
2022-11-30T12:07:56.235Z,7.40
2022-11-30T12:13:23.333Z,7.40
2022-11-30T12:16:26.749Z,7.40
2022-11-30T12:19:15.249Z,7.30
2022-11-30T12:22:42.585Z,7.30
2022-11-30T12:25:28.064Z,7.40
2022-11-30T12:28:34.072Z,7.40
2022-11-30T12:31:15.690Z,7.40
2022-11-30T12:34:04.022Z,7.30
2022-11-30T12:36:55.327Z,7.30
2022-11-30T12:39:47.647Z,7.30
2022-11-30T12:42:31.225Z,7.20
2022-11-30T12:45:30.816Z,7.30
2022-11-30T12:48:27.471Z,7.20
2022-11-30T12:51:03.095Z,7.20
2022-11-30T12:53:53.953Z,7.20
2022-11-30T12:56:45.833Z,7.20
2022-11-30T12:59:29.463Z,7.30
2022-11-30T13:02:28.303Z,7.20
2022-11-30T13:05:21.513Z,7.20
2022-11-30T13:07:55.491Z,7.30
2022-11-30T13:10:38.960Z,7.30
2022-11-30T13:13:13.405Z,7.30
2022-11-30T13:15:41.718Z,7.30
2022-11-30T13:18:17.875Z,7.20
2022-11-30T13:21:13.599Z,7.30
2022-11-30T13:24:02.943Z,7.20
2022-11-30T13:26:59.399Z,7.20
2022-11-30T13:30:17.018Z,7.20
2022-11-30T13:32:59.457Z,7.20
2022-11-30T13:35:29.410Z,7.20
2022-11-30T13:41:08.389Z,7.20
2022-11-30T13:43:47.800Z,7.10
2022-11-30T13:46:23.485Z,7.10
2022-11-30T13:49:21.176Z,7.00
2022-11-30T13:52:13.198Z,6.90
2022-11-30T13:54:47.913Z,6.90
2022-11-30T13:57:29.965Z,6.90
2022-11-30T14:00:31.791Z,6.90
2022-11-30T14:03:20.365Z,6.80
2022-11-30T14:05:48.073Z,6.80
2022-11-30T14:08:23.755Z,6.80
2022-11-30T14:11:15.129Z,6.80
2022-11-30T14:13:42.253Z,6.80
2022-11-30T14:16:27.680Z,6.80
2022-11-30T14:18:56.982Z,6.90
2022-11-30T14:21:34.419Z,6.90
2022-11-30T14:24:18.940Z,6.80
2022-11-30T14:26:51.009Z,6.80
2022-11-30T14:29:32.828Z,6.80
2022-11-30T14:32:25.552Z,6.80
2022-11-30T14:35:03.682Z,6.70
2022-11-30T14:37:42.956Z,6.70
2022-11-30T14:40:18.993Z,6.70
2022-11-30T14:42:52.861Z,6.70
2022-11-30T14:45:32.796Z,6.70
2022-11-30T14:48:14.644Z,6.70
2022-11-30T14:50:50.286Z,6.70
2022-11-30T14:53:55.013Z,6.70
2022-11-30T14:56:47.290Z,6.70
2022-11-30T14:59:25.960Z,6.60
2022-11-30T15:02:03.940Z,6.60
2022-11-30T15:04:31.729Z,6.60
2022-11-30T15:07:00.233Z,6.50
2022-11-30T15:09:32.361Z,6.50
2022-11-30T15:12:00.035Z,6.50
2022-11-30T15:14:27.099Z,6.60
2022-11-30T15:16:58.170Z,6.50
2022-11-30T15:19:28.624Z,6.50
2022-11-30T15:21:57.769Z,6.40
2022-11-30T15:24:26.685Z,6.40
2022-11-30T15:27:11.036Z,6.40
2022-11-30T15:29:44.305Z,6.40
2022-11-30T15:32:22.949Z,6.40
2022-11-30T15:34:56.810Z,6.40
2022-11-30T15:37:35.263Z,6.30
2022-11-30T15:40:06.609Z,6.30
2022-11-30T15:42:41.352Z,6.40
2022-11-30T15:45:11.671Z,6.40
2022-11-30T15:47:39.578Z,6.40
2022-11-30T15:50:40.706Z,6.40
2022-11-30T15:53:35.219Z,6.30
2022-11-30T15:56:21.704Z,6.40
2022-11-30T15:59:25.367Z,6.40
2022-11-30T16:02:02.445Z,6.30
2022-11-30T16:04:58.266Z,6.30
2022-11-30T16:07:48.763Z,6.30
2022-11-30T16:10:30.474Z,6.30
2022-11-30T16:12:57.369Z,6.30
2022-11-30T16:15:29.626Z,6.40
2022-11-30T16:18:21.101Z,6.40
2022-11-30T16:20:52.806Z,6.40
2022-11-30T16:23:20.521Z,6.40
2022-11-30T16:25:49.396Z,6.40
2022-11-30T16:28:18.864Z,6.40
2022-11-30T16:30:46.852Z,6.40
2022-11-30T16:33:20.240Z,6.30
2022-11-30T16:35:55.780Z,6.30
2022-11-30T16:38:24.715Z,6.30
2022-11-30T16:40:54.079Z,6.30
2022-11-30T16:43:26.181Z,6.30
2022-11-30T16:45:53.010Z,6.30
2022-11-30T16:48:20.032Z,6.30
2022-11-30T16:50:47.128Z,6.30
2022-11-30T16:53:15.098Z,6.30
2022-11-30T16:55:42.045Z,6.30
2022-11-30T16:58:09.070Z,6.30
2022-11-30T17:00:39.485Z,6.30
2022-11-30T17:03:26.578Z,6.30
2022-11-30T17:05:53.440Z,6.30
2022-11-30T17:08:20.500Z,6.30
2022-11-30T17:10:53.266Z,6.30
2022-11-30T17:13:21.431Z,6.20
2022-11-30T17:15:49.160Z,6.30
2022-11-30T17:18:16.094Z,6.20
2022-11-30T17:20:43.212Z,6.20
2022-11-30T17:23:10.169Z,6.20
2022-11-30T17:25:36.932Z,6.20
2022-11-30T17:28:03.966Z,6.20
2022-11-30T17:30:30.862Z,6.20
2022-11-30T17:32:57.664Z,6.20
2022-11-30T17:35:24.404Z,6.20
2022-11-30T17:37:54.291Z,6.20
2022-11-30T17:40:21.094Z,6.20
2022-11-30T17:42:47.907Z,6.20
2022-11-30T17:45:14.767Z,6.20
2022-11-30T17:47:41.599Z,6.20
2022-11-30T17:50:09.375Z,6.10
2022-11-30T17:52:36.207Z,6.10
2022-11-30T17:55:03.176Z,6.10
2022-11-30T17:57:29.947Z,6.20
2022-11-30T17:59:56.748Z,6.20
2022-11-30T18:02:23.668Z,6.10
2022-11-30T18:04:52.491Z,6.10
2022-11-30T18:07:20.086Z,6.10
2022-11-30T18:09:47.134Z,6.10
2022-11-30T18:12:13.990Z,6.10
2022-11-30T18:14:40.849Z,6.10
2022-11-30T18:17:07.688Z,6.10
2022-11-30T18:19:34.554Z,6.10
2022-11-30T18:22:01.391Z,6.10
2022-11-30T18:24:28.309Z,6.20
2022-11-30T18:26:55.084Z,6.10
2022-11-30T18:29:21.962Z,6.10
2022-11-30T18:31:48.706Z,6.10
2022-11-30T18:34:15.684Z,6.20
2022-11-30T18:36:42.781Z,6.10
2022-11-30T18:39:09.929Z,6.10
2022-11-30T18:41:36.806Z,6.10
2022-11-30T18:44:03.940Z,6.20
2022-11-30T18:46:30.812Z,6.10
2022-11-30T18:48:59.134Z,6.10
2022-11-30T18:51:29.156Z,6.10
2022-11-30T18:53:59.755Z,6.10
2022-11-30T18:56:30.947Z,6.10
2022-11-30T18:59:06.023Z,6.10
2022-11-30T19:01:33.712Z,6.10
2022-11-30T19:04:05.967Z,6.10
2022-11-30T19:06:33.199Z,6.00
2022-11-30T19:09:12.933Z,6.00
2022-11-30T19:11:41.439Z,6.00
2022-11-30T19:14:12.578Z,6.00
2022-11-30T19:16:39.925Z,6.00
2022-11-30T19:19:12.678Z,6.30
2022-11-30T19:21:42.870Z,6.00
2022-11-30T19:24:09.812Z,6.00
2022-11-30T19:26:38.148Z,6.00
2022-11-30T19:29:04.932Z,6.00
2022-11-30T19:31:31.709Z,6.00
2022-11-30T19:33:58.481Z,6.00
2022-11-30T19:36:28.645Z,6.00
2022-11-30T19:38:58.342Z,6.00
2022-11-30T19:41:25.251Z,5.90
2022-11-30T19:44:03.902Z,6.00
2022-11-30T19:46:33.054Z,6.00
2022-11-30T19:49:01.623Z,5.90
2022-11-30T19:51:30.468Z,5.90
2022-11-30T19:53:59.209Z,5.90
2022-11-30T19:56:28.567Z,5.80
2022-11-30T19:59:02.687Z,5.80
2022-11-30T20:01:32.139Z,5.90
2022-11-30T20:03:59.287Z,5.90
2022-11-30T20:06:31.900Z,5.90
2022-11-30T20:08:58.720Z,5.90
2022-11-30T20:11:25.606Z,5.90
2022-11-30T20:13:52.750Z,5.90
2022-11-30T20:16:22.432Z,6.00
2022-11-30T20:19:01.715Z,6.00
2022-11-30T20:21:34.826Z,6.00
2022-11-30T20:24:06.103Z,6.10
2022-11-30T20:26:43.211Z,6.00
2022-11-30T20:29:16.290Z,6.10
2022-11-30T20:31:45.799Z,6.00
2022-11-30T20:34:12.653Z,6.10
2022-11-30T20:36:39.496Z,6.00
2022-11-30T20:39:07.087Z,6.00
2022-11-30T20:41:34.298Z,6.00
2022-11-30T20:44:01.149Z,6.00
2022-11-30T20:46:31.666Z,5.90
2022-11-30T20:48:59.816Z,5.90
2022-11-30T20:51:33.674Z,5.90
2022-11-30T20:54:05.636Z,6.00
2022-11-30T20:56:37.186Z,5.90
2022-11-30T20:59:14.243Z,5.90
2022-11-30T21:01:44.269Z,5.90
2022-11-30T21:04:11.619Z,5.90
2022-11-30T21:06:38.823Z,5.90
2022-11-30T21:09:05.612Z,5.90
2022-11-30T21:11:32.388Z,5.90
2022-11-30T21:13:59.541Z,5.90
2022-11-30T21:16:29.312Z,6.00
2022-11-30T21:19:01.004Z,6.00
2022-11-30T21:21:32.011Z,6.00
2022-11-30T21:24:02.243Z,6.00
2022-11-30T21:26:39.039Z,6.00
2022-11-30T21:29:11.504Z,6.00
2022-11-30T21:31:38.718Z,6.00
2022-11-30T21:34:05.639Z,6.00
2022-11-30T21:36:32.755Z,6.00
2022-11-30T21:39:06.122Z,6.00
2022-11-30T21:41:39.527Z,6.00
2022-11-30T21:44:11.264Z,6.00
2022-11-30T21:46:38.851Z,6.00
2022-11-30T21:49:06.392Z,6.00
2022-11-30T21:51:33.309Z,6.00
2022-11-30T21:54:04.828Z,6.00
2022-11-30T21:56:36.375Z,6.00
2022-11-30T21:59:07.026Z,6.00
2022-11-30T22:01:40.557Z,6.00
2022-11-30T22:04:10.748Z,6.00
2022-11-30T22:06:39.240Z,6.00
2022-11-30T22:09:16.569Z,6.00
2022-11-30T22:11:45.350Z,6.00
2022-11-30T22:14:17.071Z,6.00
2022-11-30T22:16:44.496Z,6.00
2022-11-30T22:19:11.365Z,6.10
2022-11-30T22:21:38.406Z,6.00
2022-11-30T22:24:10.330Z,6.00
2022-11-30T22:26:40.284Z,6.10
2022-11-30T22:29:14.041Z,6.00
2022-11-30T22:31:44.726Z,6.00
2022-11-30T22:34:12.527Z,6.10
2022-11-30T22:36:42.401Z,6.10
2022-11-30T22:39:16.614Z,6.10
2022-11-30T22:41:45.501Z,6.10
2022-11-30T22:44:15.362Z,6.10
2022-11-30T22:46:44.281Z,6.10
2022-11-30T22:49:20.171Z,6.10
2022-11-30T22:51:47.911Z,6.00
2022-11-30T22:54:14.766Z,6.10
2022-11-30T22:56:41.976Z,6.10
2022-11-30T22:59:12.403Z,6.10
2022-11-30T23:01:49.524Z,6.10
2022-11-30T23:04:19.910Z,6.00
2022-11-30T23:06:49.115Z,6.10
2022-11-30T23:09:20.631Z,6.00
2022-11-30T23:11:48.696Z,6.10
2022-11-30T23:14:16.306Z,6.10
2022-11-30T23:16:44.311Z,6.10
2022-11-30T23:19:13.367Z,6.10
2022-11-30T23:21:44.886Z,6.10
2022-11-30T23:24:20.621Z,6.10
2022-11-30T23:26:48.435Z,6.10
2022-11-30T23:29:17.180Z,6.10
2022-11-30T23:31:45.906Z,6.10
2022-11-30T23:34:19.783Z,6.10
2022-11-30T23:36:47.680Z,6.10
2022-11-30T23:39:17.927Z,6.10
2022-11-30T23:41:45.820Z,6.10
2022-11-30T23:44:13.401Z,6.10
2022-11-30T23:46:40.490Z,6.10
2022-11-30T23:49:08.187Z,6.00
2022-11-30T23:51:35.611Z,6.10
2022-11-30T23:54:02.445Z,6.10
2022-11-30T23:56:29.284Z,6.10
2022-11-30T23:58:56.079Z,6.00
